sensor_id;sensor_type;location;lat;lon;timestamp;P1;durP1;ratioP1;P2;durP2;ratioP2
17365;SDS011;8800;50.118;9.900;2022-10-16T00:02:07;2.25;;;0.82;;
17365;SDS011;8800;50.118;9.900;2022-10-16T00:04:34;2.25;;;0.70;;
17365;SDS011;8800;50.118;9.900;2022-10-16T00:07:01;3.03;;;0.70;;
17365;SDS011;8800;50.118;9.900;2022-10-16T00:09:29;0.68;;;0.55;;
17365;SDS011;8800;50.118;9.900;2022-10-16T00:11:56;1.42;;;0.80;;
17365;SDS011;8800;50.118;9.900;2022-10-16T00:14:22;0.70;;;0.70;;
17365;SDS011;8800;50.118;9.900;2022-10-16T00:16:49;2.03;;;0.68;;
17365;SDS011;8800;50.118;9.900;2022-10-16T00:19:16;1.83;;;0.70;;
17365;SDS011;8800;50.118;9.900;2022-10-16T00:21:42;0.82;;;0.68;;
17365;SDS011;8800;50.118;9.900;2022-10-16T00:24:10;0.68;;;0.60;;
17365;SDS011;8800;50.118;9.900;2022-10-16T00:26:38;1.42;;;0.93;;
17365;SDS011;8800;50.118;9.900;2022-10-16T00:29:05;1.88;;;0.80;;
17365;SDS011;8800;50.118;9.900;2022-10-16T00:31:32;1.17;;;0.77;;
17365;SDS011;8800;50.118;9.900;2022-10-16T00:33:59;1.45;;;0.73;;
17365;SDS011;8800;50.118;9.900;2022-10-16T00:36:26;0.90;;;0.68;;
17365;SDS011;8800;50.118;9.900;2022-10-16T00:38:53;1.83;;;0.80;;
17365;SDS011;8800;50.118;9.900;2022-10-16T00:41:21;0.70;;;0.70;;
17365;SDS011;8800;50.118;9.900;2022-10-16T00:43:51;3.10;;;0.80;;
17365;SDS011;8800;50.118;9.900;2022-10-16T00:46:19;2.22;;;0.68;;
17365;SDS011;8800;50.118;9.900;2022-10-16T00:48:47;0.90;;;0.75;;
17365;SDS011;8800;50.118;9.900;2022-10-16T00:51:15;0.95;;;0.80;;
17365;SDS011;8800;50.118;9.900;2022-10-16T00:53:44;1.63;;;0.80;;
17365;SDS011;8800;50.118;9.900;2022-10-16T00:56:12;1.00;;;0.70;;
17365;SDS011;8800;50.118;9.900;2022-10-16T00:58:39;0.82;;;0.73;;
17365;SDS011;8800;50.118;9.900;2022-10-16T01:01:07;0.70;;;0.70;;
17365;SDS011;8800;50.118;9.900;2022-10-16T01:03:35;0.68;;;0.68;;
17365;SDS011;8800;50.118;9.900;2022-10-16T01:06:05;1.13;;;0.80;;
17365;SDS011;8800;50.118;9.900;2022-10-16T01:08:37;1.50;;;0.90;;
17365;SDS011;8800;50.118;9.900;2022-10-16T01:11:07;0.60;;;0.60;;
17365;SDS011;8800;50.118;9.900;2022-10-16T01:13:38;0.68;;;0.68;;
17365;SDS011;8800;50.118;9.900;2022-10-16T01:16:10;3.03;;;0.73;;
17365;SDS011;8800;50.118;9.900;2022-10-16T01:18:39;0.70;;;0.70;;
17365;SDS011;8800;50.118;9.900;2022-10-16T01:21:10;1.38;;;0.80;;
17365;SDS011;8800;50.118;9.900;2022-10-16T01:23:41;1.02;;;0.80;;
17365;SDS011;8800;50.118;9.900;2022-10-16T01:29:03;3.20;;;0.80;;
17365;SDS011;8800;50.118;9.900;2022-10-16T01:31:31;3.78;;;1.10;;
17365;SDS011;8800;50.118;9.900;2022-10-16T01:34:02;0.80;;;0.75;;
17365;SDS011;8800;50.118;9.900;2022-10-16T01:36:31;2.03;;;0.75;;
17365;SDS011;8800;50.118;9.900;2022-10-16T01:39:00;0.80;;;0.70;;
17365;SDS011;8800;50.118;9.900;2022-10-16T01:41:30;1.20;;;0.70;;
17365;SDS011;8800;50.118;9.900;2022-10-16T01:43:58;0.80;;;0.80;;
17365;SDS011;8800;50.118;9.900;2022-10-16T01:46:29;0.90;;;0.80;;
17365;SDS011;8800;50.118;9.900;2022-10-16T01:48:57;1.20;;;0.93;;
17365;SDS011;8800;50.118;9.900;2022-10-16T01:51:24;1.23;;;0.80;;
17365;SDS011;8800;50.118;9.900;2022-10-16T01:53:52;1.40;;;0.70;;
17365;SDS011;8800;50.118;9.900;2022-10-16T01:56:19;2.53;;;0.80;;
17365;SDS011;8800;50.118;9.900;2022-10-16T01:58:49;1.02;;;0.70;;
17365;SDS011;8800;50.118;9.900;2022-10-16T02:01:16;0.80;;;0.70;;
17365;SDS011;8800;50.118;9.900;2022-10-16T02:03:45;0.60;;;0.60;;
17365;SDS011;8800;50.118;9.900;2022-10-16T02:06:13;0.60;;;0.60;;
17365;SDS011;8800;50.118;9.900;2022-10-16T02:08:39;1.38;;;0.60;;
17365;SDS011;8800;50.118;9.900;2022-10-16T02:11:09;1.13;;;0.50;;
17365;SDS011;8800;50.118;9.900;2022-10-16T02:13:37;0.75;;;0.60;;
17365;SDS011;8800;50.118;9.900;2022-10-16T02:16:05;0.93;;;0.50;;
17365;SDS011;8800;50.118;9.900;2022-10-16T02:18:32;0.57;;;0.47;;
17365;SDS011;8800;50.118;9.900;2022-10-16T02:21:02;0.90;;;0.70;;
17365;SDS011;8800;50.118;9.900;2022-10-16T02:23:35;0.50;;;0.47;;
17365;SDS011;8800;50.118;9.900;2022-10-16T02:26:04;1.38;;;0.60;;
17365;SDS011;8800;50.118;9.900;2022-10-16T02:28:34;0.40;;;0.40;;
17365;SDS011;8800;50.118;9.900;2022-10-16T02:31:04;1.35;;;0.80;;
17365;SDS011;8800;50.118;9.900;2022-10-16T02:33:34;1.10;;;0.77;;
17365;SDS011;8800;50.118;9.900;2022-10-16T02:36:03;0.65;;;0.65;;
17365;SDS011;8800;50.118;9.900;2022-10-16T02:38:30;1.90;;;1.10;;
17365;SDS011;8800;50.118;9.900;2022-10-16T02:40:57;0.63;;;0.63;;
17365;SDS011;8800;50.118;9.900;2022-10-16T02:43:24;1.00;;;0.75;;
17365;SDS011;8800;50.118;9.900;2022-10-16T02:45:51;0.85;;;0.50;;
17365;SDS011;8800;50.118;9.900;2022-10-16T02:48:18;0.50;;;0.50;;
17365;SDS011;8800;50.118;9.900;2022-10-16T02:50:44;0.70;;;0.60;;
17365;SDS011;8800;50.118;9.900;2022-10-16T02:53:12;1.00;;;0.60;;
17365;SDS011;8800;50.118;9.900;2022-10-16T02:55:39;0.80;;;0.60;;
17365;SDS011;8800;50.118;9.900;2022-10-16T02:58:06;1.00;;;0.63;;
17365;SDS011;8800;50.118;9.900;2022-10-16T03:00:33;0.77;;;0.60;;
17365;SDS011;8800;50.118;9.900;2022-10-16T03:02:59;0.40;;;0.40;;
17365;SDS011;8800;50.118;9.900;2022-10-16T03:05:26;0.55;;;0.45;;
17365;SDS011;8800;50.118;9.900;2022-10-16T03:07:53;0.50;;;0.40;;
17365;SDS011;8800;50.118;9.900;2022-10-16T03:10:21;0.50;;;0.50;;
17365;SDS011;8800;50.118;9.900;2022-10-16T03:12:47;0.55;;;0.47;;
17365;SDS011;8800;50.118;9.900;2022-10-16T03:15:14;0.60;;;0.50;;
17365;SDS011;8800;50.118;9.900;2022-10-16T03:17:41;0.43;;;0.43;;
17365;SDS011;8800;50.118;9.900;2022-10-16T03:20:08;1.02;;;0.60;;
17365;SDS011;8800;50.118;9.900;2022-10-16T03:22:35;1.38;;;0.50;;
17365;SDS011;8800;50.118;9.900;2022-10-16T03:25:02;0.50;;;0.32;;
17365;SDS011;8800;50.118;9.900;2022-10-16T03:27:30;0.60;;;0.60;;
17365;SDS011;8800;50.118;9.900;2022-10-16T03:29:57;0.52;;;0.40;;
17365;SDS011;8800;50.118;9.900;2022-10-16T03:32:23;0.50;;;0.47;;
17365;SDS011;8800;50.118;9.900;2022-10-16T03:34:50;6.43;;;0.57;;
17365;SDS011;8800;50.118;9.900;2022-10-16T03:37:19;0.60;;;0.50;;
17365;SDS011;8800;50.118;9.900;2022-10-16T03:39:46;1.65;;;0.38;;
17365;SDS011;8800;50.118;9.900;2022-10-16T03:42:12;0.40;;;0.40;;
17365;SDS011;8800;50.118;9.900;2022-10-16T03:44:40;0.40;;;0.40;;
17365;SDS011;8800;50.118;9.900;2022-10-16T03:47:07;0.73;;;0.40;;
17365;SDS011;8800;50.118;9.900;2022-10-16T03:49:33;1.15;;;0.50;;
17365;SDS011;8800;50.118;9.900;2022-10-16T03:51:59;0.43;;;0.40;;
17365;SDS011;8800;50.118;9.900;2022-10-16T03:54:26;0.82;;;0.50;;
17365;SDS011;8800;50.118;9.900;2022-10-16T03:56:52;0.57;;;0.50;;
17365;SDS011;8800;50.118;9.900;2022-10-16T03:59:19;0.50;;;0.38;;
17365;SDS011;8800;50.118;9.900;2022-10-16T04:01:46;0.50;;;0.50;;
17365;SDS011;8800;50.118;9.900;2022-10-16T04:04:13;0.70;;;0.50;;
17365;SDS011;8800;50.118;9.900;2022-10-16T04:06:39;1.63;;;0.40;;
17365;SDS011;8800;50.118;9.900;2022-10-16T04:09:06;0.40;;;0.40;;
17365;SDS011;8800;50.118;9.900;2022-10-16T04:11:32;0.60;;;0.50;;
17365;SDS011;8800;50.118;9.900;2022-10-16T04:13:58;0.40;;;0.40;;
17365;SDS011;8800;50.118;9.900;2022-10-16T04:16:25;1.10;;;0.55;;
17365;SDS011;8800;50.118;9.900;2022-10-16T04:18:53;1.15;;;0.60;;
17365;SDS011;8800;50.118;9.900;2022-10-16T04:21:19;1.05;;;0.55;;
17365;SDS011;8800;50.118;9.900;2022-10-16T04:23:45;0.50;;;0.50;;
17365;SDS011;8800;50.118;9.900;2022-10-16T04:26:12;0.60;;;0.40;;
17365;SDS011;8800;50.118;9.900;2022-10-16T04:28:38;3.85;;;0.50;;
17365;SDS011;8800;50.118;9.900;2022-10-16T04:31:05;2.90;;;0.77;;
17365;SDS011;8800;50.118;9.900;2022-10-16T04:33:31;1.08;;;0.60;;
17365;SDS011;8800;50.118;9.900;2022-10-16T04:36:00;2.65;;;1.33;;
17365;SDS011;8800;50.118;9.900;2022-10-16T04:38:26;1.80;;;1.23;;
17365;SDS011;8800;50.118;9.900;2022-10-16T04:40:53;2.33;;;1.65;;
17365;SDS011;8800;50.118;9.900;2022-10-16T04:43:19;1.75;;;1.10;;
17365;SDS011;8800;50.118;9.900;2022-10-16T04:45:46;2.50;;;1.15;;
17365;SDS011;8800;50.118;9.900;2022-10-16T04:48:12;1.17;;;0.90;;
17365;SDS011;8800;50.118;9.900;2022-10-16T04:50:38;0.80;;;0.80;;
17365;SDS011;8800;50.118;9.900;2022-10-16T04:53:06;1.23;;;0.60;;
17365;SDS011;8800;50.118;9.900;2022-10-16T04:55:33;0.80;;;0.70;;
17365;SDS011;8800;50.118;9.900;2022-10-16T04:57:59;0.75;;;0.73;;
17365;SDS011;8800;50.118;9.900;2022-10-16T05:00:26;1.30;;;0.80;;
17365;SDS011;8800;50.118;9.900;2022-10-16T05:02:52;1.38;;;0.85;;
17365;SDS011;8800;50.118;9.900;2022-10-16T05:05:19;0.75;;;0.70;;
17365;SDS011;8800;50.118;9.900;2022-10-16T05:07:45;0.98;;;0.70;;
17365;SDS011;8800;50.118;9.900;2022-10-16T05:10:13;0.88;;;0.85;;
17365;SDS011;8800;50.118;9.900;2022-10-16T05:12:39;0.80;;;0.80;;
17365;SDS011;8800;50.118;9.900;2022-10-16T05:15:06;0.70;;;0.65;;
17365;SDS011;8800;50.118;9.900;2022-10-16T05:17:33;2.50;;;0.70;;
17365;SDS011;8800;50.118;9.900;2022-10-16T05:19:59;0.70;;;0.60;;
17365;SDS011;8800;50.118;9.900;2022-10-16T05:22:25;1.15;;;0.85;;
17365;SDS011;8800;50.118;9.900;2022-10-16T05:24:52;1.42;;;1.10;;
17365;SDS011;8800;50.118;9.900;2022-10-16T05:27:20;1.45;;;1.27;;
17365;SDS011;8800;50.118;9.900;2022-10-16T05:29:46;1.85;;;1.20;;
17365;SDS011;8800;50.118;9.900;2022-10-16T05:32:13;2.33;;;1.25;;
17365;SDS011;8800;50.118;9.900;2022-10-16T05:34:39;1.67;;;1.20;;
17365;SDS011;8800;50.118;9.900;2022-10-16T05:37:06;1.48;;;1.10;;
17365;SDS011;8800;50.118;9.900;2022-10-16T05:39:32;1.25;;;1.00;;
17365;SDS011;8800;50.118;9.900;2022-10-16T05:41:59;1.08;;;0.80;;
17365;SDS011;8800;50.118;9.900;2022-10-16T05:44:26;2.20;;;0.70;;
17365;SDS011;8800;50.118;9.900;2022-10-16T05:46:53;0.80;;;0.65;;
17365;SDS011;8800;50.118;9.900;2022-10-16T05:49:19;1.02;;;0.88;;
17365;SDS011;8800;50.118;9.900;2022-10-16T05:51:46;1.98;;;1.02;;
17365;SDS011;8800;50.118;9.900;2022-10-16T05:54:12;2.33;;;1.30;;
17365;SDS011;8800;50.118;9.900;2022-10-16T05:56:39;1.90;;;1.40;;
17365;SDS011;8800;50.118;9.900;2022-10-16T05:59:05;4.57;;;1.60;;
17365;SDS011;8800;50.118;9.900;2022-10-16T06:01:33;3.45;;;1.67;;
17365;SDS011;8800;50.118;9.900;2022-10-16T06:04:00;3.03;;;2.10;;
17365;SDS011;8800;50.118;9.900;2022-10-16T06:06:27;4.10;;;1.90;;
17365;SDS011;8800;50.118;9.900;2022-10-16T06:08:55;3.30;;;1.63;;
17365;SDS011;8800;50.118;9.900;2022-10-16T06:11:22;2.47;;;1.67;;
17365;SDS011;8800;50.118;9.900;2022-10-16T06:13:49;2.75;;;1.85;;
17365;SDS011;8800;50.118;9.900;2022-10-16T06:16:16;4.20;;;2.25;;
17365;SDS011;8800;50.118;9.900;2022-10-16T06:18:44;4.25;;;2.60;;
17365;SDS011;8800;50.118;9.900;2022-10-16T06:21:11;7.88;;;3.10;;
17365;SDS011;8800;50.118;9.900;2022-10-16T06:23:37;8.02;;;2.85;;
17365;SDS011;8800;50.118;9.900;2022-10-16T06:26:05;6.82;;;3.10;;
17365;SDS011;8800;50.118;9.900;2022-10-16T06:28:31;6.88;;;2.80;;
17365;SDS011;8800;50.118;9.900;2022-10-16T06:30:58;4.57;;;2.25;;
17365;SDS011;8800;50.118;9.900;2022-10-16T06:33:25;3.55;;;1.80;;
17365;SDS011;8800;50.118;9.900;2022-10-16T06:35:52;3.83;;;2.30;;
17365;SDS011;8800;50.118;9.900;2022-10-16T06:38:19;4.72;;;2.65;;
17365;SDS011;8800;50.118;9.900;2022-10-16T06:40:45;5.40;;;3.53;;
17365;SDS011;8800;50.118;9.900;2022-10-16T06:43:13;5.85;;;3.88;;
17365;SDS011;8800;50.118;9.900;2022-10-16T06:45:40;5.63;;;3.50;;
17365;SDS011;8800;50.118;9.900;2022-10-16T06:48:06;7.95;;;5.30;;
17365;SDS011;8800;50.118;9.900;2022-10-16T06:50:33;5.18;;;2.03;;
17365;SDS011;8800;50.118;9.900;2022-10-16T06:53:00;4.43;;;1.95;;
17365;SDS011;8800;50.118;9.900;2022-10-16T06:55:27;3.25;;;2.20;;
17365;SDS011;8800;50.118;9.900;2022-10-16T06:57:53;3.95;;;2.00;;
17365;SDS011;8800;50.118;9.900;2022-10-16T07:00:20;2.60;;;2.13;;
17365;SDS011;8800;50.118;9.900;2022-10-16T07:02:46;5.60;;;3.97;;
17365;SDS011;8800;50.118;9.900;2022-10-16T07:05:12;4.22;;;3.10;;
17365;SDS011;8800;50.118;9.900;2022-10-16T07:07:39;6.07;;;3.55;;
17365;SDS011;8800;50.118;9.900;2022-10-16T07:10:07;8.38;;;3.58;;
17365;SDS011;8800;50.118;9.900;2022-10-16T07:12:34;5.05;;;2.97;;
17365;SDS011;8800;50.118;9.900;2022-10-16T07:15:00;4.25;;;2.20;;
17365;SDS011;8800;50.118;9.900;2022-10-16T07:17:26;3.40;;;2.08;;
17365;SDS011;8800;50.118;9.900;2022-10-16T07:19:53;3.33;;;2.40;;
17365;SDS011;8800;50.118;9.900;2022-10-16T07:22:20;3.65;;;2.10;;
17365;SDS011;8800;50.118;9.900;2022-10-16T07:24:46;4.28;;;2.40;;
17365;SDS011;8800;50.118;9.900;2022-10-16T07:27:14;2.75;;;1.90;;
17365;SDS011;8800;50.118;9.900;2022-10-16T07:29:41;2.97;;;1.58;;
17365;SDS011;8800;50.118;9.900;2022-10-16T07:32:08;3.75;;;1.92;;
17365;SDS011;8800;50.118;9.900;2022-10-16T07:34:34;2.08;;;1.40;;
17365;SDS011;8800;50.118;9.900;2022-10-16T07:37:00;1.85;;;1.52;;
17365;SDS011;8800;50.118;9.900;2022-10-16T07:39:27;5.07;;;1.60;;
17365;SDS011;8800;50.118;9.900;2022-10-16T07:41:53;4.25;;;1.80;;
17365;SDS011;8800;50.118;9.900;2022-10-16T07:44:21;3.55;;;1.63;;
17365;SDS011;8800;50.118;9.900;2022-10-16T07:46:48;2.30;;;1.73;;
17365;SDS011;8800;50.118;9.900;2022-10-16T07:49:14;2.42;;;1.92;;
17365;SDS011;8800;50.118;9.900;2022-10-16T07:51:41;4.93;;;2.42;;
17365;SDS011;8800;50.118;9.900;2022-10-16T07:54:07;4.40;;;2.00;;
17365;SDS011;8800;50.118;9.900;2022-10-16T07:56:34;4.25;;;1.63;;
17365;SDS011;8800;50.118;9.900;2022-10-16T07:59:00;2.67;;;1.63;;
17365;SDS011;8800;50.118;9.900;2022-10-16T08:01:28;2.53;;;1.67;;
17365;SDS011;8800;50.118;9.900;2022-10-16T08:03:54;4.13;;;2.00;;
17365;SDS011;8800;50.118;9.900;2022-10-16T08:06:21;4.28;;;1.48;;
17365;SDS011;8800;50.118;9.900;2022-10-16T08:08:48;3.47;;;1.63;;
17365;SDS011;8800;50.118;9.900;2022-10-16T08:11:14;4.45;;;1.60;;
17365;SDS011;8800;50.118;9.900;2022-10-16T08:13:41;2.50;;;1.60;;
17365;SDS011;8800;50.118;9.900;2022-10-16T08:16:07;1.63;;;1.30;;
17365;SDS011;8800;50.118;9.900;2022-10-16T08:18:36;2.38;;;1.30;;
17365;SDS011;8800;50.118;9.900;2022-10-16T08:21:02;3.33;;;1.70;;
17365;SDS011;8800;50.118;9.900;2022-10-16T08:23:29;5.03;;;1.63;;
17365;SDS011;8800;50.118;9.900;2022-10-16T08:25:56;1.65;;;1.10;;
17365;SDS011;8800;50.118;9.900;2022-10-16T08:28:22;1.73;;;1.20;;
17365;SDS011;8800;50.118;9.900;2022-10-16T08:30:49;1.75;;;1.10;;
17365;SDS011;8800;50.118;9.900;2022-10-16T08:33:15;1.75;;;1.15;;
17365;SDS011;8800;50.118;9.900;2022-10-16T08:35:51;1.70;;;1.23;;
17365;SDS011;8800;50.118;9.900;2022-10-16T08:38:18;2.28;;;1.17;;
17365;SDS011;8800;50.118;9.900;2022-10-16T08:40:45;2.33;;;1.20;;
17365;SDS011;8800;50.118;9.900;2022-10-16T08:43:21;3.70;;;1.05;;
17365;SDS011;8800;50.118;9.900;2022-10-16T08:46:02;2.13;;;1.25;;
17365;SDS011;8800;50.118;9.900;2022-10-16T08:48:34;2.42;;;1.30;;
17365;SDS011;8800;50.118;9.900;2022-10-16T08:51:03;1.40;;;1.10;;
17365;SDS011;8800;50.118;9.900;2022-10-16T08:53:30;2.20;;;0.93;;
17365;SDS011;8800;50.118;9.900;2022-10-16T08:55:57;2.47;;;1.20;;
17365;SDS011;8800;50.118;9.900;2022-10-16T08:58:26;2.30;;;1.23;;
17365;SDS011;8800;50.118;9.900;2022-10-16T09:00:54;1.30;;;1.00;;
17365;SDS011;8800;50.118;9.900;2022-10-16T09:03:27;3.42;;;0.90;;
17365;SDS011;8800;50.118;9.900;2022-10-16T09:06:08;1.42;;;0.90;;
17365;SDS011;8800;50.118;9.900;2022-10-16T09:08:38;1.98;;;1.38;;
17365;SDS011;8800;50.118;9.900;2022-10-16T09:11:10;4.30;;;1.20;;
17365;SDS011;8800;50.118;9.900;2022-10-16T09:13:40;4.43;;;1.40;;
17365;SDS011;8800;50.118;9.900;2022-10-16T09:16:11;3.65;;;1.75;;
17365;SDS011;8800;50.118;9.900;2022-10-16T09:18:40;3.33;;;1.55;;
17365;SDS011;8800;50.118;9.900;2022-10-16T09:21:12;4.30;;;1.90;;
17365;SDS011;8800;50.118;9.900;2022-10-16T09:23:40;5.68;;;2.20;;
17365;SDS011;8800;50.118;9.900;2022-10-16T09:26:09;7.35;;;2.63;;
17365;SDS011;8800;50.118;9.900;2022-10-16T09:28:36;3.20;;;1.95;;
17365;SDS011;8800;50.118;9.900;2022-10-16T09:31:03;2.03;;;1.20;;
17365;SDS011;8800;50.118;9.900;2022-10-16T09:33:30;2.42;;;1.45;;
17365;SDS011;8800;50.118;9.900;2022-10-16T09:35:59;1.50;;;1.13;;
17365;SDS011;8800;50.118;9.900;2022-10-16T09:38:30;2.67;;;1.55;;
17365;SDS011;8800;50.118;9.900;2022-10-16T09:40:58;2.35;;;1.10;;
17365;SDS011;8800;50.118;9.900;2022-10-16T09:43:25;2.20;;;1.20;;
17365;SDS011;8800;50.118;9.900;2022-10-16T09:45:59;5.35;;;1.58;;
17365;SDS011;8800;50.118;9.900;2022-10-16T09:48:27;2.42;;;1.55;;
17365;SDS011;8800;50.118;9.900;2022-10-16T09:51:01;3.83;;;1.70;;
17365;SDS011;8800;50.118;9.900;2022-10-16T09:53:40;3.33;;;1.80;;
17365;SDS011;8800;50.118;9.900;2022-10-16T09:56:09;2.42;;;1.52;;
17365;SDS011;8800;50.118;9.900;2022-10-16T09:58:35;4.15;;;1.58;;
17365;SDS011;8800;50.118;9.900;2022-10-16T10:01:03;3.55;;;2.10;;
17365;SDS011;8800;50.118;9.900;2022-10-16T10:03:36;5.03;;;1.75;;
17365;SDS011;8800;50.118;9.900;2022-10-16T10:06:05;13.25;;;4.47;;
17365;SDS011;8800;50.118;9.900;2022-10-16T10:08:32;7.03;;;2.60;;
17365;SDS011;8800;50.118;9.900;2022-10-16T10:11:00;3.45;;;1.40;;
17365;SDS011;8800;50.118;9.900;2022-10-16T10:13:26;2.38;;;1.58;;
17365;SDS011;8800;50.118;9.900;2022-10-16T10:15:53;2.22;;;1.38;;
17365;SDS011;8800;50.118;9.900;2022-10-16T10:18:20;2.63;;;1.17;;
17365;SDS011;8800;50.118;9.900;2022-10-16T10:20:56;3.38;;;1.50;;
17365;SDS011;8800;50.118;9.900;2022-10-16T10:23:24;3.72;;;1.40;;
17365;SDS011;8800;50.118;9.900;2022-10-16T10:25:51;3.55;;;1.40;;
17365;SDS011;8800;50.118;9.900;2022-10-16T10:28:32;2.50;;;1.45;;
17365;SDS011;8800;50.118;9.900;2022-10-16T10:31:03;3.22;;;1.60;;
17365;SDS011;8800;50.118;9.900;2022-10-16T10:33:36;2.38;;;1.30;;
17365;SDS011;8800;50.118;9.900;2022-10-16T10:36:07;3.72;;;1.50;;
17365;SDS011;8800;50.118;9.900;2022-10-16T10:38:38;1.50;;;1.40;;
17365;SDS011;8800;50.118;9.900;2022-10-16T10:41:16;5.25;;;1.35;;
17365;SDS011;8800;50.118;9.900;2022-10-16T10:43:50;2.20;;;1.40;;
17365;SDS011;8800;50.118;9.900;2022-10-16T10:46:20;1.48;;;1.05;;
17365;SDS011;8800;50.118;9.900;2022-10-16T10:48:54;2.22;;;1.20;;
17365;SDS011;8800;50.118;9.900;2022-10-16T10:51:25;2.33;;;1.13;;
17365;SDS011;8800;50.118;9.900;2022-10-16T10:53:56;2.92;;;1.20;;
17365;SDS011;8800;50.118;9.900;2022-10-16T10:56:30;1.80;;;1.08;;
17365;SDS011;8800;50.118;9.900;2022-10-16T11:01:50;3.53;;;1.42;;
17365;SDS011;8800;50.118;9.900;2022-10-16T11:04:28;2.67;;;1.23;;
17365;SDS011;8800;50.118;9.900;2022-10-16T11:06:59;6.15;;;2.30;;
17365;SDS011;8800;50.118;9.900;2022-10-16T11:09:28;2.00;;;1.40;;
17365;SDS011;8800;50.118;9.900;2022-10-16T11:11:58;2.88;;;1.20;;
17365;SDS011;8800;50.118;9.900;2022-10-16T11:14:26;1.30;;;1.00;;
17365;SDS011;8800;50.118;9.900;2022-10-16T11:16:58;1.33;;;1.20;;
17365;SDS011;8800;50.118;9.900;2022-10-16T11:19:31;1.40;;;1.00;;
17365;SDS011;8800;50.118;9.900;2022-10-16T11:21:59;2.40;;;1.10;;
17365;SDS011;8800;50.118;9.900;2022-10-16T11:24:30;1.70;;;0.90;;
17365;SDS011;8800;50.118;9.900;2022-10-16T11:27:00;2.30;;;1.08;;
17365;SDS011;8800;50.118;9.900;2022-10-16T11:29:30;1.48;;;0.93;;
17365;SDS011;8800;50.118;9.900;2022-10-16T11:31:59;2.38;;;0.88;;
17365;SDS011;8800;50.118;9.900;2022-10-16T11:34:31;3.08;;;0.90;;
17365;SDS011;8800;50.118;9.900;2022-10-16T11:36:58;1.65;;;1.00;;
17365;SDS011;8800;50.118;9.900;2022-10-16T11:39:28;1.08;;;0.90;;
17365;SDS011;8800;50.118;9.900;2022-10-16T11:41:56;1.83;;;0.98;;
17365;SDS011;8800;50.118;9.900;2022-10-16T11:44:31;1.60;;;1.00;;
17365;SDS011;8800;50.118;9.900;2022-10-16T11:47:01;0.77;;;0.63;;
17365;SDS011;8800;50.118;9.900;2022-10-16T11:49:31;1.70;;;0.75;;
17365;SDS011;8800;50.118;9.900;2022-10-16T11:51:59;2.00;;;0.90;;
17365;SDS011;8800;50.118;9.900;2022-10-16T11:54:28;1.08;;;0.80;;
17365;SDS011;8800;50.118;9.900;2022-10-16T11:56:59;0.88;;;0.70;;
17365;SDS011;8800;50.118;9.900;2022-10-16T11:59:29;1.10;;;0.90;;
17365;SDS011;8800;50.118;9.900;2022-10-16T12:01:59;2.20;;;1.02;;
17365;SDS011;8800;50.118;9.900;2022-10-16T12:04:32;1.55;;;0.70;;
17365;SDS011;8800;50.118;9.900;2022-10-16T12:07:02;0.70;;;0.60;;
17365;SDS011;8800;50.118;9.900;2022-10-16T12:09:32;1.48;;;0.80;;
17365;SDS011;8800;50.118;9.900;2022-10-16T12:11:58;1.10;;;0.70;;
17365;SDS011;8800;50.118;9.900;2022-10-16T12:14:38;2.25;;;0.60;;
17365;SDS011;8800;50.118;9.900;2022-10-16T12:19:57;2.53;;;1.00;;
17365;SDS011;8800;50.118;9.900;2022-10-16T12:22:24;2.72;;;0.60;;
17365;SDS011;8800;50.118;9.900;2022-10-16T12:24:53;0.88;;;0.70;;
17365;SDS011;8800;50.118;9.900;2022-10-16T12:27:21;6.43;;;2.70;;
17365;SDS011;8800;50.118;9.900;2022-10-16T12:29:53;2.28;;;0.90;;
17365;SDS011;8800;50.118;9.900;2022-10-16T12:32:23;2.35;;;0.80;;
17365;SDS011;8800;50.118;9.900;2022-10-16T12:34:51;1.38;;;0.80;;
17365;SDS011;8800;50.118;9.900;2022-10-16T12:37:20;2.25;;;0.90;;
17365;SDS011;8800;50.118;9.900;2022-10-16T12:39:47;1.23;;;0.60;;
17365;SDS011;8800;50.118;9.900;2022-10-16T12:44:59;0.80;;;0.57;;
17365;SDS011;8800;50.118;9.900;2022-10-16T12:47:35;1.20;;;0.50;;
17365;SDS011;8800;50.118;9.900;2022-10-16T12:50:03;0.75;;;0.60;;
17365;SDS011;8800;50.118;9.900;2022-10-16T12:52:35;0.60;;;0.50;;
17365;SDS011;8800;50.118;9.900;2022-10-16T12:55:02;0.65;;;0.55;;
17365;SDS011;8800;50.118;9.900;2022-10-16T12:57:41;0.73;;;0.60;;
17365;SDS011;8800;50.118;9.900;2022-10-16T13:00:13;1.23;;;0.50;;
17365;SDS011;8800;50.118;9.900;2022-10-16T13:02:48;0.90;;;0.68;;
17365;SDS011;8800;50.118;9.900;2022-10-16T13:05:20;1.23;;;0.60;;
17365;SDS011;8800;50.118;9.900;2022-10-16T13:07:55;0.70;;;0.70;;
17365;SDS011;8800;50.118;9.900;2022-10-16T13:10:25;0.90;;;0.68;;
17365;SDS011;8800;50.118;9.900;2022-10-16T13:13:06;2.72;;;0.65;;
17365;SDS011;8800;50.118;9.900;2022-10-16T13:15:40;4.45;;;0.70;;
17365;SDS011;8800;50.118;9.900;2022-10-16T13:18:10;1.17;;;0.70;;
17365;SDS011;8800;50.118;9.900;2022-10-16T13:20:42;0.80;;;0.80;;
17365;SDS011;8800;50.118;9.900;2022-10-16T13:23:13;0.77;;;0.60;;
17365;SDS011;8800;50.118;9.900;2022-10-16T13:25:45;0.65;;;0.65;;
17365;SDS011;8800;50.118;9.900;2022-10-16T13:28:12;0.77;;;0.70;;
17365;SDS011;8800;50.118;9.900;2022-10-16T13:30:40;1.40;;;0.60;;
17365;SDS011;8800;50.118;9.900;2022-10-16T13:33:11;1.38;;;0.73;;
17365;SDS011;8800;50.118;9.900;2022-10-16T13:35:46;0.75;;;0.70;;
17365;SDS011;8800;50.118;9.900;2022-10-16T13:38:15;0.73;;;0.70;;
17365;SDS011;8800;50.118;9.900;2022-10-16T13:40:48;0.50;;;0.50;;
17365;SDS011;8800;50.118;9.900;2022-10-16T13:43:15;1.92;;;0.70;;
17365;SDS011;8800;50.118;9.900;2022-10-16T13:45:51;1.08;;;0.60;;
17365;SDS011;8800;50.118;9.900;2022-10-16T13:48:18;1.30;;;0.82;;
17365;SDS011;8800;50.118;9.900;2022-10-16T13:50:45;0.65;;;0.60;;
17365;SDS011;8800;50.118;9.900;2022-10-16T13:53:12;0.80;;;0.70;;
17365;SDS011;8800;50.118;9.900;2022-10-16T13:55:41;0.65;;;0.52;;
17365;SDS011;8800;50.118;9.900;2022-10-16T13:58:08;0.60;;;0.60;;
17365;SDS011;8800;50.118;9.900;2022-10-16T14:00:34;0.95;;;0.60;;
17365;SDS011;8800;50.118;9.900;2022-10-16T14:03:01;0.70;;;0.70;;
17365;SDS011;8800;50.118;9.900;2022-10-16T14:05:29;1.73;;;0.70;;
17365;SDS011;8800;50.118;9.900;2022-10-16T14:07:56;0.88;;;0.82;;
17365;SDS011;8800;50.118;9.900;2022-10-16T14:10:24;2.28;;;0.75;;
17365;SDS011;8800;50.118;9.900;2022-10-16T14:12:57;2.15;;;0.70;;
17365;SDS011;8800;50.118;9.900;2022-10-16T14:15:24;1.10;;;0.80;;
17365;SDS011;8800;50.118;9.900;2022-10-16T14:17:51;2.75;;;0.98;;
17365;SDS011;8800;50.118;9.900;2022-10-16T14:20:18;1.98;;;1.00;;
17365;SDS011;8800;50.118;9.900;2022-10-16T14:22:45;3.88;;;1.30;;
17365;SDS011;8800;50.118;9.900;2022-10-16T14:25:23;4.03;;;1.70;;
17365;SDS011;8800;50.118;9.900;2022-10-16T14:28:03;0.82;;;0.70;;
17365;SDS011;8800;50.118;9.900;2022-10-16T14:30:30;6.78;;;2.15;;
17365;SDS011;8800;50.118;9.900;2022-10-16T14:32:57;10.35;;;3.10;;
17365;SDS011;8800;50.118;9.900;2022-10-16T14:35:25;3.38;;;1.45;;
17365;SDS011;8800;50.118;9.900;2022-10-16T14:37:52;29.40;;;8.98;;
17365;SDS011;8800;50.118;9.900;2022-10-16T14:40:19;10.30;;;3.40;;
17365;SDS011;8800;50.118;9.900;2022-10-16T14:42:46;2.53;;;1.67;;
17365;SDS011;8800;50.118;9.900;2022-10-16T14:45:17;3.20;;;1.05;;
17365;SDS011;8800;50.118;9.900;2022-10-16T14:47:47;1.60;;;1.35;;
17365;SDS011;8800;50.118;9.900;2022-10-16T14:50:14;3.13;;;1.30;;
17365;SDS011;8800;50.118;9.900;2022-10-16T14:52:40;1.38;;;1.10;;
17365;SDS011;8800;50.118;9.900;2022-10-16T14:55:08;4.72;;;1.80;;
17365;SDS011;8800;50.118;9.900;2022-10-16T14:57:35;3.33;;;1.67;;
17365;SDS011;8800;50.118;9.900;2022-10-16T15:00:03;3.75;;;1.52;;
17365;SDS011;8800;50.118;9.900;2022-10-16T15:02:34;2.17;;;1.27;;
17365;SDS011;8800;50.118;9.900;2022-10-16T15:05:04;13.43;;;5.03;;
17365;SDS011;8800;50.118;9.900;2022-10-16T15:07:33;19.60;;;7.38;;
17365;SDS011;8800;50.118;9.900;2022-10-16T15:10:00;10.95;;;4.13;;
17365;SDS011;8800;50.118;9.900;2022-10-16T15:12:26;13.13;;;5.10;;
17365;SDS011;8800;50.118;9.900;2022-10-16T15:14:52;2.75;;;1.02;;
17365;SDS011;8800;50.118;9.900;2022-10-16T15:17:19;1.50;;;0.85;;
17365;SDS011;8800;50.118;9.900;2022-10-16T15:19:47;2.75;;;1.50;;